sensor_id;sensor_type;location;lat;lon;timestamp;P1;durP1;ratioP1;P2;durP2;ratioP2
3922;SDS011;1976;51.694;6.256;2023-08-07T00:00:22;0.60;;;0.60;;
3922;SDS011;1976;51.694;6.256;2023-08-07T00:02:48;0.60;;;0.60;;
3922;SDS011;1976;51.694;6.256;2023-08-07T00:05:14;0.60;;;0.60;;
3922;SDS011;1976;51.694;6.256;2023-08-07T00:07:41;0.60;;;0.60;;
3922;SDS011;1976;51.694;6.256;2023-08-07T00:10:07;0.60;;;0.60;;
3922;SDS011;1976;51.694;6.256;2023-08-07T00:12:33;0.60;;;0.60;;
3922;SDS011;1976;51.694;6.256;2023-08-07T00:14:59;0.60;;;0.60;;
3922;SDS011;1976;51.694;6.256;2023-08-07T00:17:25;0.60;;;0.60;;
3922;SDS011;1976;51.694;6.256;2023-08-07T00:19:51;0.60;;;0.60;;
3922;SDS011;1976;51.694;6.256;2023-08-07T00:22:17;0.60;;;0.60;;
3922;SDS011;1976;51.694;6.256;2023-08-07T00:24:42;0.60;;;0.60;;
3922;SDS011;1976;51.694;6.256;2023-08-07T00:27:08;0.60;;;0.60;;
3922;SDS011;1976;51.694;6.256;2023-08-07T00:29:37;0.60;;;0.60;;
3922;SDS011;1976;51.694;6.256;2023-08-07T00:32:04;0.60;;;0.60;;
3922;SDS011;1976;51.694;6.256;2023-08-07T00:34:30;0.60;;;0.60;;
3922;SDS011;1976;51.694;6.256;2023-08-07T00:36:55;0.60;;;0.60;;
3922;SDS011;1976;51.694;6.256;2023-08-07T00:39:21;0.60;;;0.60;;
3922;SDS011;1976;51.694;6.256;2023-08-07T00:41:47;0.60;;;0.60;;
3922;SDS011;1976;51.694;6.256;2023-08-07T00:44:13;0.60;;;0.60;;
3922;SDS011;1976;51.694;6.256;2023-08-07T00:46:39;0.60;;;0.60;;
3922;SDS011;1976;51.694;6.256;2023-08-07T00:49:05;0.60;;;0.60;;
3922;SDS011;1976;51.694;6.256;2023-08-07T00:51:33;0.60;;;0.60;;
3922;SDS011;1976;51.694;6.256;2023-08-07T00:53:59;0.70;;;0.70;;
3922;SDS011;1976;51.694;6.256;2023-08-07T00:56:28;0.60;;;0.60;;
3922;SDS011;1976;51.694;6.256;2023-08-07T00:58:55;0.60;;;0.60;;
3922;SDS011;1976;51.694;6.256;2023-08-07T01:01:20;0.60;;;0.60;;
3922;SDS011;1976;51.694;6.256;2023-08-07T01:03:46;0.60;;;0.60;;
3922;SDS011;1976;51.694;6.256;2023-08-07T01:06:12;0.60;;;0.60;;
3922;SDS011;1976;51.694;6.256;2023-08-07T01:08:38;0.60;;;0.60;;
3922;SDS011;1976;51.694;6.256;2023-08-07T01:16:30;0.60;;;0.60;;
3922;SDS011;1976;51.694;6.256;2023-08-07T01:19:08;0.60;;;0.60;;
3922;SDS011;1976;51.694;6.256;2023-08-07T01:21:39;0.60;;;0.60;;
3922;SDS011;1976;51.694;6.256;2023-08-07T01:24:05;0.60;;;0.60;;
3922;SDS011;1976;51.694;6.256;2023-08-07T01:26:30;1.43;;;1.10;;
3922;SDS011;1976;51.694;6.256;2023-08-07T01:29:06;0.60;;;0.60;;
3922;SDS011;1976;51.694;6.256;2023-08-07T01:31:44;0.60;;;0.60;;
3922;SDS011;1976;51.694;6.256;2023-08-07T01:34:11;0.60;;;0.60;;
3922;SDS011;1976;51.694;6.256;2023-08-07T01:36:39;0.60;;;0.60;;
3922;SDS011;1976;51.694;6.256;2023-08-07T01:39:05;0.60;;;0.60;;
3922;SDS011;1976;51.694;6.256;2023-08-07T01:41:32;0.60;;;0.60;;
3922;SDS011;1976;51.694;6.256;2023-08-07T01:43:59;0.60;;;0.60;;
3922;SDS011;1976;51.694;6.256;2023-08-07T01:46:29;0.60;;;0.60;;
3922;SDS011;1976;51.694;6.256;2023-08-07T01:48:54;0.60;;;0.60;;
3922;SDS011;1976;51.694;6.256;2023-08-07T01:51:20;0.60;;;0.60;;
3922;SDS011;1976;51.694;6.256;2023-08-07T01:53:45;0.60;;;0.60;;
3922;SDS011;1976;51.694;6.256;2023-08-07T01:56:12;0.60;;;0.60;;
3922;SDS011;1976;51.694;6.256;2023-08-07T01:58:38;0.60;;;0.60;;
3922;SDS011;1976;51.694;6.256;2023-08-07T02:01:04;0.60;;;0.60;;
3922;SDS011;1976;51.694;6.256;2023-08-07T02:03:29;0.60;;;0.60;;
3922;SDS011;1976;51.694;6.256;2023-08-07T02:05:55;0.60;;;0.60;;
3922;SDS011;1976;51.694;6.256;2023-08-07T02:08:21;0.60;;;0.60;;
3922;SDS011;1976;51.694;6.256;2023-08-07T02:10:46;0.60;;;0.60;;
3922;SDS011;1976;51.694;6.256;2023-08-07T02:13:12;0.60;;;0.60;;
3922;SDS011;1976;51.694;6.256;2023-08-07T02:15:37;0.60;;;0.60;;
3922;SDS011;1976;51.694;6.256;2023-08-07T02:18:03;0.60;;;0.60;;
3922;SDS011;1976;51.694;6.256;2023-08-07T02:20:29;0.60;;;0.60;;
3922;SDS011;1976;51.694;6.256;2023-08-07T02:22:54;0.60;;;0.60;;
3922;SDS011;1976;51.694;6.256;2023-08-07T02:25:20;0.60;;;0.60;;
3922;SDS011;1976;51.694;6.256;2023-08-07T02:27:45;0.60;;;0.60;;
3922;SDS011;1976;51.694;6.256;2023-08-07T02:30:11;0.60;;;0.60;;
3922;SDS011;1976;51.694;6.256;2023-08-07T02:32:37;0.60;;;0.60;;
3922;SDS011;1976;51.694;6.256;2023-08-07T02:35:02;2.33;;;2.13;;
3922;SDS011;1976;51.694;6.256;2023-08-07T02:37:28;0.60;;;0.60;;
3922;SDS011;1976;51.694;6.256;2023-08-07T02:39:54;0.60;;;0.60;;
3922;SDS011;1976;51.694;6.256;2023-08-07T02:42:20;0.60;;;0.60;;
3922;SDS011;1976;51.694;6.256;2023-08-07T02:44:45;0.60;;;0.60;;
3922;SDS011;1976;51.694;6.256;2023-08-07T02:47:11;0.70;;;0.70;;
3922;SDS011;1976;51.694;6.256;2023-08-07T02:49:36;0.60;;;0.60;;
3922;SDS011;1976;51.694;6.256;2023-08-07T02:52:02;1.07;;;1.00;;
3922;SDS011;1976;51.694;6.256;2023-08-07T02:54:28;0.60;;;0.60;;
3922;SDS011;1976;51.694;6.256;2023-08-07T02:56:54;0.60;;;0.60;;
3922;SDS011;1976;51.694;6.256;2023-08-07T02:59:19;0.60;;;0.60;;
3922;SDS011;1976;51.694;6.256;2023-08-07T03:01:45;0.60;;;0.60;;
3922;SDS011;1976;51.694;6.256;2023-08-07T03:04:10;0.60;;;0.60;;
3922;SDS011;1976;51.694;6.256;2023-08-07T03:06:36;0.60;;;0.60;;
3922;SDS011;1976;51.694;6.256;2023-08-07T03:09:02;0.60;;;0.60;;
3922;SDS011;1976;51.694;6.256;2023-08-07T03:11:28;0.60;;;0.60;;
3922;SDS011;1976;51.694;6.256;2023-08-07T03:13:54;0.60;;;0.60;;
3922;SDS011;1976;51.694;6.256;2023-08-07T03:16:21;0.60;;;0.60;;
3922;SDS011;1976;51.694;6.256;2023-08-07T03:18:46;0.60;;;0.60;;
3922;SDS011;1976;51.694;6.256;2023-08-07T03:21:12;0.60;;;0.60;;
3922;SDS011;1976;51.694;6.256;2023-08-07T03:23:37;0.60;;;0.60;;
3922;SDS011;1976;51.694;6.256;2023-08-07T03:26:04;0.60;;;0.60;;
3922;SDS011;1976;51.694;6.256;2023-08-07T03:28:32;0.60;;;0.60;;
3922;SDS011;1976;51.694;6.256;2023-08-07T03:30:58;0.60;;;0.60;;
3922;SDS011;1976;51.694;6.256;2023-08-07T03:33:24;0.60;;;0.60;;
3922;SDS011;1976;51.694;6.256;2023-08-07T03:35:50;0.60;;;0.60;;
3922;SDS011;1976;51.694;6.256;2023-08-07T03:38:16;0.60;;;0.60;;
3922;SDS011;1976;51.694;6.256;2023-08-07T03:40:41;0.60;;;0.60;;
3922;SDS011;1976;51.694;6.256;2023-08-07T03:43:07;0.60;;;0.60;;
3922;SDS011;1976;51.694;6.256;2023-08-07T03:45:32;0.60;;;0.60;;
3922;SDS011;1976;51.694;6.256;2023-08-07T03:47:58;0.63;;;0.63;;
3922;SDS011;1976;51.694;6.256;2023-08-07T03:50:24;0.60;;;0.60;;
3922;SDS011;1976;51.694;6.256;2023-08-07T03:52:49;0.60;;;0.60;;
3922;SDS011;1976;51.694;6.256;2023-08-07T03:55:15;0.60;;;0.60;;
3922;SDS011;1976;51.694;6.256;2023-08-07T03:57:40;0.60;;;0.60;;
3922;SDS011;1976;51.694;6.256;2023-08-07T04:00:06;0.60;;;0.60;;
3922;SDS011;1976;51.694;6.256;2023-08-07T04:02:32;0.90;;;0.90;;
3922;SDS011;1976;51.694;6.256;2023-08-07T04:04:58;0.60;;;0.60;;
3922;SDS011;1976;51.694;6.256;2023-08-07T04:07:23;0.60;;;0.60;;
3922;SDS011;1976;51.694;6.256;2023-08-07T04:09:49;0.60;;;0.60;;
3922;SDS011;1976;51.694;6.256;2023-08-07T04:12:15;0.60;;;0.60;;
3922;SDS011;1976;51.694;6.256;2023-08-07T04:14:40;0.60;;;0.60;;
3922;SDS011;1976;51.694;6.256;2023-08-07T04:17:06;0.60;;;0.60;;
3922;SDS011;1976;51.694;6.256;2023-08-07T04:19:32;0.60;;;0.60;;
3922;SDS011;1976;51.694;6.256;2023-08-07T04:21:58;0.60;;;0.60;;
3922;SDS011;1976;51.694;6.256;2023-08-07T04:24:23;0.60;;;0.60;;
3922;SDS011;1976;51.694;6.256;2023-08-07T04:26:49;0.60;;;0.60;;
3922;SDS011;1976;51.694;6.256;2023-08-07T04:29:14;0.60;;;0.60;;
3922;SDS011;1976;51.694;6.256;2023-08-07T04:31:40;0.60;;;0.60;;
3922;SDS011;1976;51.694;6.256;2023-08-07T04:34:06;0.60;;;0.60;;
3922;SDS011;1976;51.694;6.256;2023-08-07T04:36:31;0.60;;;0.60;;
3922;SDS011;1976;51.694;6.256;2023-08-07T04:38:58;0.70;;;0.70;;
3922;SDS011;1976;51.694;6.256;2023-08-07T04:41:23;0.60;;;0.60;;
3922;SDS011;1976;51.694;6.256;2023-08-07T04:43:49;0.60;;;0.60;;
3922;SDS011;1976;51.694;6.256;2023-08-07T04:46:14;0.60;;;0.60;;
3922;SDS011;1976;51.694;6.256;2023-08-07T04:48:40;0.60;;;0.60;;
3922;SDS011;1976;51.694;6.256;2023-08-07T04:51:06;0.60;;;0.60;;
3922;SDS011;1976;51.694;6.256;2023-08-07T04:53:32;0.70;;;0.70;;
3922;SDS011;1976;51.694;6.256;2023-08-07T04:55:59;0.60;;;0.60;;
3922;SDS011;1976;51.694;6.256;2023-08-07T04:58:24;0.60;;;0.60;;
3922;SDS011;1976;51.694;6.256;2023-08-07T05:00:56;0.60;;;0.60;;
3922;SDS011;1976;51.694;6.256;2023-08-07T05:03:23;0.60;;;0.60;;
3922;SDS011;1976;51.694;6.256;2023-08-07T05:05:49;0.60;;;0.60;;
3922;SDS011;1976;51.694;6.256;2023-08-07T05:08:15;0.60;;;0.60;;
3922;SDS011;1976;51.694;6.256;2023-08-07T05:10:41;0.60;;;0.60;;
3922;SDS011;1976;51.694;6.256;2023-08-07T05:13:07;0.60;;;0.60;;
3922;SDS011;1976;51.694;6.256;2023-08-07T05:15:33;0.60;;;0.60;;
3922;SDS011;1976;51.694;6.256;2023-08-07T05:17:59;0.60;;;0.60;;
3922;SDS011;1976;51.694;6.256;2023-08-07T05:20:24;0.60;;;0.60;;
3922;SDS011;1976;51.694;6.256;2023-08-07T05:22:50;0.60;;;0.60;;
3922;SDS011;1976;51.694;6.256;2023-08-07T05:25:16;0.60;;;0.60;;
3922;SDS011;1976;51.694;6.256;2023-08-07T05:27:42;0.60;;;0.60;;
3922;SDS011;1976;51.694;6.256;2023-08-07T05:30:09;0.60;;;0.60;;
3922;SDS011;1976;51.694;6.256;2023-08-07T05:32:35;0.60;;;0.60;;
3922;SDS011;1976;51.694;6.256;2023-08-07T05:35:03;0.60;;;0.60;;
3922;SDS011;1976;51.694;6.256;2023-08-07T05:37:30;0.60;;;0.60;;
3922;SDS011;1976;51.694;6.256;2023-08-07T05:39:56;0.60;;;0.60;;
3922;SDS011;1976;51.694;6.256;2023-08-07T05:42:22;0.60;;;0.60;;
3922;SDS011;1976;51.694;6.256;2023-08-07T05:44:48;0.60;;;0.60;;
3922;SDS011;1976;51.694;6.256;2023-08-07T05:47:13;0.60;;;0.60;;
3922;SDS011;1976;51.694;6.256;2023-08-07T05:49:39;0.70;;;0.70;;
3922;SDS011;1976;51.694;6.256;2023-08-07T05:52:05;0.60;;;0.60;;
3922;SDS011;1976;51.694;6.256;2023-08-07T05:54:31;0.60;;;0.60;;
3922;SDS011;1976;51.694;6.256;2023-08-07T05:56:56;0.60;;;0.60;;
3922;SDS011;1976;51.694;6.256;2023-08-07T05:59:22;0.60;;;0.60;;
3922;SDS011;1976;51.694;6.256;2023-08-07T06:01:48;0.60;;;0.60;;
3922;SDS011;1976;51.694;6.256;2023-08-07T06:04:13;0.60;;;0.60;;
3922;SDS011;1976;51.694;6.256;2023-08-07T06:06:39;0.60;;;0.60;;
3922;SDS011;1976;51.694;6.256;2023-08-07T06:09:05;0.60;;;0.60;;
3922;SDS011;1976;51.694;6.256;2023-08-07T06:11:32;0.60;;;0.60;;
3922;SDS011;1976;51.694;6.256;2023-08-07T06:13:58;0.60;;;0.60;;
3922;SDS011;1976;51.694;6.256;2023-08-07T06:16:24;0.60;;;0.60;;
3922;SDS011;1976;51.694;6.256;2023-08-07T06:18:49;0.60;;;0.60;;
3922;SDS011;1976;51.694;6.256;2023-08-07T06:21:15;0.60;;;0.60;;
3922;SDS011;1976;51.694;6.256;2023-08-07T06:23:41;0.60;;;0.60;;
3922;SDS011;1976;51.694;6.256;2023-08-07T06:26:07;0.60;;;0.60;;
3922;SDS011;1976;51.694;6.256;2023-08-07T06:28:33;0.60;;;0.60;;
3922;SDS011;1976;51.694;6.256;2023-08-07T06:31:05;0.60;;;0.60;;
3922;SDS011;1976;51.694;6.256;2023-08-07T06:33:35;0.60;;;0.60;;
3922;SDS011;1976;51.694;6.256;2023-08-07T06:36:01;0.60;;;0.60;;
3922;SDS011;1976;51.694;6.256;2023-08-07T06:38:28;0.60;;;0.60;;
3922;SDS011;1976;51.694;6.256;2023-08-07T06:40:53;0.60;;;0.60;;
3922;SDS011;1976;51.694;6.256;2023-08-07T06:43:19;0.60;;;0.60;;
3922;SDS011;1976;51.694;6.256;2023-08-07T06:45:51;0.60;;;0.60;;
3922;SDS011;1976;51.694;6.256;2023-08-07T06:48:17;0.60;;;0.60;;
3922;SDS011;1976;51.694;6.256;2023-08-07T06:50:43;0.60;;;0.60;;
3922;SDS011;1976;51.694;6.256;2023-08-07T06:53:09;0.60;;;0.60;;
3922;SDS011;1976;51.694;6.256;2023-08-07T06:55:34;0.60;;;0.60;;
3922;SDS011;1976;51.694;6.256;2023-08-07T06:58:00;0.60;;;0.60;;
3922;SDS011;1976;51.694;6.256;2023-08-07T07:00:25;0.60;;;0.60;;
3922;SDS011;1976;51.694;6.256;2023-08-07T07:02:51;0.60;;;0.60;;
3922;SDS011;1976;51.694;6.256;2023-08-07T07:05:18;0.60;;;0.60;;
3922;SDS011;1976;51.694;6.256;2023-08-07T07:07:43;0.60;;;0.60;;
3922;SDS011;1976;51.694;6.256;2023-08-07T07:10:09;0.60;;;0.60;;
3922;SDS011;1976;51.694;6.256;2023-08-07T07:12:35;0.60;;;0.60;;
3922;SDS011;1976;51.694;6.256;2023-08-07T07:15:01;0.60;;;0.60;;
3922;SDS011;1976;51.694;6.256;2023-08-07T07:17:27;0.60;;;0.60;;
3922;SDS011;1976;51.694;6.256;2023-08-07T07:19:53;0.60;;;0.60;;
3922;SDS011;1976;51.694;6.256;2023-08-07T07:22:18;0.60;;;0.60;;
3922;SDS011;1976;51.694;6.256;2023-08-07T07:24:44;0.60;;;0.60;;
3922;SDS011;1976;51.694;6.256;2023-08-07T07:27:10;0.60;;;0.60;;
3922;SDS011;1976;51.694;6.256;2023-08-07T07:29:35;0.60;;;0.60;;
3922;SDS011;1976;51.694;6.256;2023-08-07T07:32:01;0.53;;;0.53;;
3922;SDS011;1976;51.694;6.256;2023-08-07T07:34:27;0.60;;;0.60;;
3922;SDS011;1976;51.694;6.256;2023-08-07T07:36:52;0.50;;;0.50;;
3922;SDS011;1976;51.694;6.256;2023-08-07T07:39:19;0.50;;;0.50;;
3922;SDS011;1976;51.694;6.256;2023-08-07T07:41:45;0.50;;;0.50;;
3922;SDS011;1976;51.694;6.256;2023-08-07T07:44:10;0.60;;;0.60;;
3922;SDS011;1976;51.694;6.256;2023-08-07T07:46:36;0.50;;;0.50;;
3922;SDS011;1976;51.694;6.256;2023-08-07T07:49:01;0.60;;;0.60;;
3922;SDS011;1976;51.694;6.256;2023-08-07T07:51:29;0.60;;;0.60;;
3922;SDS011;1976;51.694;6.256;2023-08-07T07:53:54;0.50;;;0.50;;
3922;SDS011;1976;51.694;6.256;2023-08-07T07:56:20;0.60;;;0.60;;
3922;SDS011;1976;51.694;6.256;2023-08-07T07:58:45;0.57;;;0.57;;
3922;SDS011;1976;51.694;6.256;2023-08-07T08:01:11;0.60;;;0.60;;
3922;SDS011;1976;51.694;6.256;2023-08-07T08:03:36;0.53;;;0.53;;
3922;SDS011;1976;51.694;6.256;2023-08-07T08:06:02;3.87;;;1.33;;
3922;SDS011;1976;51.694;6.256;2023-08-07T08:08:28;12.30;;;2.70;;
3922;SDS011;1976;51.694;6.256;2023-08-07T08:10:54;12.47;;;2.43;;
3922;SDS011;1976;51.694;6.256;2023-08-07T08:13:19;13.83;;;3.60;;
3922;SDS011;1976;51.694;6.256;2023-08-07T08:15:45;15.80;;;2.60;;
3922;SDS011;1976;51.694;6.256;2023-08-07T08:18:11;10.40;;;2.57;;
3922;SDS011;1976;51.694;6.256;2023-08-07T08:20:37;14.57;;;3.10;;
3922;SDS011;1976;51.694;6.256;2023-08-07T08:23:03;6.13;;;3.07;;
3922;SDS011;1976;51.694;6.256;2023-08-07T08:25:29;7.60;;;2.17;;
3922;SDS011;1976;51.694;6.256;2023-08-07T08:27:55;4.80;;;2.23;;
3922;SDS011;1976;51.694;6.256;2023-08-07T08:30:21;8.23;;;2.80;;
3922;SDS011;1976;51.694;6.256;2023-08-07T08:32:47;6.13;;;2.20;;
3922;SDS011;1976;51.694;6.256;2023-08-07T08:35:13;7.47;;;3.20;;
3922;SDS011;1976;51.694;6.256;2023-08-07T08:37:39;17.27;;;2.93;;
3922;SDS011;1976;51.694;6.256;2023-08-07T08:40:05;7.17;;;2.23;;
3922;SDS011;1976;51.694;6.256;2023-08-07T08:42:33;10.67;;;3.30;;
3922;SDS011;1976;51.694;6.256;2023-08-07T08:44:59;9.10;;;2.03;;
3922;SDS011;1976;51.694;6.256;2023-08-07T08:47:27;15.10;;;2.67;;
3922;SDS011;1976;51.694;6.256;2023-08-07T08:50:17;4.43;;;2.40;;
3922;SDS011;1976;51.694;6.256;2023-08-07T08:52:43;14.30;;;4.37;;
3922;SDS011;1976;51.694;6.256;2023-08-07T08:55:10;8.83;;;3.50;;
3922;SDS011;1976;51.694;6.256;2023-08-07T08:57:37;9.70;;;3.23;;
3922;SDS011;1976;51.694;6.256;2023-08-07T09:00:04;12.97;;;2.70;;
3922;SDS011;1976;51.694;6.256;2023-08-07T09:02:43;10.57;;;2.77;;
3922;SDS011;1976;51.694;6.256;2023-08-07T09:05:10;9.30;;;3.10;;
3922;SDS011;1976;51.694;6.256;2023-08-07T09:07:35;9.13;;;3.63;;
3922;SDS011;1976;51.694;6.256;2023-08-07T09:10:02;14.10;;;2.90;;
3922;SDS011;1976;51.694;6.256;2023-08-07T09:12:29;12.50;;;3.10;;
3922;SDS011;1976;51.694;6.256;2023-08-07T09:14:57;22.40;;;4.10;;
3922;SDS011;1976;51.694;6.256;2023-08-07T09:17:25;5.97;;;2.70;;
3922;SDS011;1976;51.694;6.256;2023-08-07T09:19:54;14.30;;;3.07;;
3922;SDS011;1976;51.694;6.256;2023-08-07T09:22:20;11.10;;;3.57;;
3922;SDS011;1976;51.694;6.256;2023-08-07T09:24:46;19.10;;;3.03;;
3922;SDS011;1976;51.694;6.256;2023-08-07T09:27:12;7.53;;;2.67;;
3922;SDS011;1976;51.694;6.256;2023-08-07T09:29:42;8.03;;;2.67;;
3922;SDS011;1976;51.694;6.256;2023-08-07T09:32:09;15.20;;;2.43;;
3922;SDS011;1976;51.694;6.256;2023-08-07T09:34:38;8.70;;;2.93;;
3922;SDS011;1976;51.694;6.256;2023-08-07T09:37:04;13.23;;;2.70;;
3922;SDS011;1976;51.694;6.256;2023-08-07T09:39:30;16.63;;;2.90;;
3922;SDS011;1976;51.694;6.256;2023-08-07T09:41:56;24.27;;;3.50;;
3922;SDS011;1976;51.694;6.256;2023-08-07T09:44:21;12.53;;;3.00;;
3922;SDS011;1976;51.694;6.256;2023-08-07T09:46:47;32.10;;;4.10;;
3922;SDS011;1976;51.694;6.256;2023-08-07T09:49:13;11.00;;;3.13;;
3922;SDS011;1976;51.694;6.256;2023-08-07T09:51:45;12.73;;;3.27;;
3922;SDS011;1976;51.694;6.256;2023-08-07T09:54:12;10.17;;;2.90;;
3922;SDS011;1976;51.694;6.256;2023-08-07T09:56:38;12.13;;;3.10;;
3922;SDS011;1976;51.694;6.256;2023-08-07T09:59:05;10.63;;;3.07;;
3922;SDS011;1976;51.694;6.256;2023-08-07T10:01:31;12.60;;;4.40;;
3922;SDS011;1976;51.694;6.256;2023-08-07T10:03:57;21.23;;;3.90;;
3922;SDS011;1976;51.694;6.256;2023-08-07T10:06:23;24.63;;;3.97;;
3922;SDS011;1976;51.694;6.256;2023-08-07T10:08:50;9.30;;;3.07;;
3922;SDS011;1976;51.694;6.256;2023-08-07T10:11:16;15.07;;;3.40;;
3922;SDS011;1976;51.694;6.256;2023-08-07T10:13:43;8.33;;;2.73;;
3922;SDS011;1976;51.694;6.256;2023-08-07T10:16:09;6.20;;;2.80;;
3922;SDS011;1976;51.694;6.256;2023-08-07T10:18:36;8.23;;;2.43;;
3922;SDS011;1976;51.694;6.256;2023-08-07T10:21:03;9.80;;;2.63;;
3922;SDS011;1976;51.694;6.256;2023-08-07T10:23:30;9.17;;;2.40;;
3922;SDS011;1976;51.694;6.256;2023-08-07T10:26:00;13.20;;;2.87;;
3922;SDS011;1976;51.694;6.256;2023-08-07T10:28:29;14.43;;;2.30;;
3922;SDS011;1976;51.694;6.256;2023-08-07T10:30:56;15.70;;;3.27;;
3922;SDS011;1976;51.694;6.256;2023-08-07T10:33:23;6.30;;;2.57;;
3922;SDS011;1976;51.694;6.256;2023-08-07T10:35:51;10.90;;;2.47;;
3922;SDS011;1976;51.694;6.256;2023-08-07T10:38:18;11.33;;;3.07;;
3922;SDS011;1976;51.694;6.256;2023-08-07T10:41:00;8.67;;;2.57;;
3922;SDS011;1976;51.694;6.256;2023-08-07T10:43:45;15.10;;;3.77;;
3922;SDS011;1976;51.694;6.256;2023-08-07T10:46:13;9.20;;;3.20;;
3922;SDS011;1976;51.694;6.256;2023-08-07T10:48:45;12.47;;;2.30;;
3922;SDS011;1976;51.694;6.256;2023-08-07T10:51:16;11.50;;;2.50;;
3922;SDS011;1976;51.694;6.256;2023-08-07T10:53:43;11.53;;;2.40;;
3922;SDS011;1976;51.694;6.256;2023-08-07T10:56:34;9.57;;;1.90;;
3922;SDS011;1976;51.694;6.256;2023-08-07T10:59:06;6.73;;;2.17;;
3922;SDS011;1976;51.694;6.256;2023-08-07T11:04:08;6.40;;;2.10;;
3922;SDS011;1976;51.694;6.256;2023-08-07T11:06:36;9.97;;;2.40;;
3922;SDS011;1976;51.694;6.256;2023-08-07T11:09:03;8.00;;;2.10;;
3922;SDS011;1976;51.694;6.256;2023-08-07T11:11:36;8.33;;;2.10;;
3922;SDS011;1976;51.694;6.256;2023-08-07T11:14:10;7.23;;;2.20;;
3922;SDS011;1976;51.694;6.256;2023-08-07T11:16:41;14.47;;;3.10;;
3922;SDS011;1976;51.694;6.256;2023-08-07T11:19:07;8.20;;;1.87;;
3922;SDS011;1976;51.694;6.256;2023-08-07T11:21:34;2.40;;;1.50;;
3922;SDS011;1976;51.694;6.256;2023-08-07T11:24:00;9.40;;;2.27;;
3922;SDS011;1976;51.694;6.256;2023-08-07T11:26:26;10.50;;;2.10;;
3922;SDS011;1976;51.694;6.256;2023-08-07T11:28:53;9.23;;;1.80;;
3922;SDS011;1976;51.694;6.256;2023-08-07T11:31:19;9.37;;;1.87;;
3922;SDS011;1976;51.694;6.256;2023-08-07T11:33:45;12.13;;;1.70;;
3922;SDS011;1976;51.694;6.256;2023-08-07T11:36:11;9.40;;;2.50;;
3922;SDS011;1976;51.694;6.256;2023-08-07T11:38:42;5.23;;;1.80;;
3922;SDS011;1976;51.694;6.256;2023-08-07T11:41:09;19.13;;;2.43;;
3922;SDS011;1976;51.694;6.256;2023-08-07T11:43:36;10.30;;;2.20;;
3922;SDS011;1976;51.694;6.256;2023-08-07T11:46:03;3.47;;;1.73;;
3922;SDS011;1976;51.694;6.256;2023-08-07T11:48:33;8.87;;;2.07;;
3922;SDS011;1976;51.694;6.256;2023-08-07T11:51:00;7.70;;;2.30;;
3922;SDS011;1976;51.694;6.256;2023-08-07T11:53:28;7.67;;;2.60;;
3922;SDS011;1976;51.694;6.256;2023-08-07T11:55:55;6.63;;;2.10;;
3922;SDS011;1976;51.694;6.256;2023-08-07T11:58:22;5.80;;;1.90;;
3922;SDS011;1976;51.694;6.256;2023-08-07T12:00:49;9.23;;;2.23;;
3922;SDS011;1976;51.694;6.256;2023-08-07T12:03:25;14.30;;;2.70;;
3922;SDS011;1976;51.694;6.256;2023-08-07T12:05:56;11.53;;;3.30;;
3922;SDS011;1976;51.694;6.256;2023-08-07T12:08:24;13.93;;;1.90;;
3922;SDS011;1976;51.694;6.256;2023-08-07T12:10:50;10.97;;;2.30;;
3922;SDS011;1976;51.694;6.256;2023-08-07T12:13:19;12.13;;;1.73;;
3922;SDS011;1976;51.694;6.256;2023-08-07T12:15:50;7.90;;;2.13;;
3922;SDS011;1976;51.694;6.256;2023-08-07T12:18:18;10.23;;;2.40;;
3922;SDS011;1976;51.694;6.256;2023-08-07T12:20:45;7.83;;;1.70;;
3922;SDS011;1976;51.694;6.256;2023-08-07T12:23:14;6.30;;;2.00;;
3922;SDS011;1976;51.694;6.256;2023-08-07T12:25:44;6.10;;;1.50;;
3922;SDS011;1976;51.694;6.256;2023-08-07T12:28:10;2.60;;;1.60;;
3922;SDS011;1976;51.694;6.256;2023-08-07T12:30:36;7.70;;;1.83;;
3922;SDS011;1976;51.694;6.256;2023-08-07T12:33:02;7.10;;;2.03;;
3922;SDS011;1976;51.694;6.256;2023-08-07T12:35:29;7.07;;;1.70;;
3922;SDS011;1976;51.694;6.256;2023-08-07T12:37:55;5.10;;;1.80;;
3922;SDS011;1976;51.694;6.256;2023-08-07T12:40:21;6.90;;;1.53;;
3922;SDS011;1976;51.694;6.256;2023-08-07T12:42:48;14.03;;;2.17;;
3922;SDS011;1976;51.694;6.256;2023-08-07T12:45:17;4.10;;;1.87;;
3922;SDS011;1976;51.694;6.256;2023-08-07T12:47:44;6.30;;;1.80;;
3922;SDS011;1976;51.694;6.256;2023-08-07T12:50:10;15.80;;;1.70;;
3922;SDS011;1976;51.694;6.256;2023-08-07T12:52:36;11.53;;;2.23;;
3922;SDS011;1976;51.694;6.256;2023-08-07T12:55:02;10.13;;;1.70;;
3922;SDS011;1976;51.694;6.256;2023-08-07T12:57:28;4.40;;;1.83;;
3922;SDS011;1976;51.694;6.256;2023-08-07T12:59:54;6.17;;;1.30;;
3922;SDS011;1976;51.694;6.256;2023-08-07T13:02:19;7.30;;;1.67;;
3922;SDS011;1976;51.694;6.256;2023-08-07T13:04:45;5.70;;;2.10;;
3922;SDS011;1976;51.694;6.256;2023-08-07T13:07:11;5.90;;;1.87;;
3922;SDS011;1976;51.694;6.256;2023-08-07T13:09:37;8.23;;;1.80;;
3922;SDS011;1976;51.694;6.256;2023-08-07T13:12:03;4.27;;;1.70;;
3922;SDS011;1976;51.694;6.256;2023-08-07T13:14:29;4.40;;;1.97;;
3922;SDS011;1976;51.694;6.256;2023-08-07T13:16:55;9.27;;;1.70;;
3922;SDS011;1976;51.694;6.256;2023-08-07T13:19:20;9.50;;;2.27;;
3922;SDS011;1976;51.694;6.256;2023-08-07T13:21:46;5.90;;;2.30;;
3922;SDS011;1976;51.694;6.256;2023-08-07T13:24:12;3.93;;;1.80;;
3922;SDS011;1976;51.694;6.256;2023-08-07T13:26:37;4.47;;;2.00;;
3922;SDS011;1976;51.694;6.256;2023-08-07T13:29:09;3.50;;;1.60;;
3922;SDS011;1976;51.694;6.256;2023-08-07T13:31:38;7.23;;;1.70;;
3922;SDS011;1976;51.694;6.256;2023-08-07T13:34:06;6.27;;;1.70;;
3922;SDS011;1976;51.694;6.256;2023-08-07T13:36:36;9.43;;;2.60;;
3922;SDS011;1976;51.694;6.256;2023-08-07T13:39:03;3.63;;;2.07;;
3922;SDS011;1976;51.694;6.256;2023-08-07T13:41:29;6.30;;;1.90;;
3922;SDS011;1976;51.694;6.256;2023-08-07T13:43:55;5.00;;;2.03;;
3922;SDS011;1976;51.694;6.256;2023-08-07T13:46:20;4.90;;;2.00;;
3922;SDS011;1976;51.694;6.256;2023-08-07T13:48:47;5.83;;;1.90;;
3922;SDS011;1976;51.694;6.256;2023-08-07T13:51:13;2.93;;;1.80;;
3922;SDS011;1976;51.694;6.256;2023-08-07T13:53:39;4.87;;;1.77;;
3922;SDS011;1976;51.694;6.256;2023-08-07T13:56:06;8.50;;;1.97;;
3922;SDS011;1976;51.694;6.256;2023-08-07T13:58:33;6.63;;;1.97;;
3922;SDS011;1976;51.694;6.256;2023-08-07T14:00:59;6.40;;;1.63;;
3922;SDS011;1976;51.694;6.256;2023-08-07T14:03:25;7.90;;;1.67;;
3922;SDS011;1976;51.694;6.256;2023-08-07T14:05:50;3.27;;;1.47;;
3922;SDS011;1976;51.694;6.256;2023-08-07T14:08:16;3.17;;;1.10;;
3922;SDS011;1976;51.694;6.256;2023-08-07T14:10:42;4.73;;;1.47;;
3922;SDS011;1976;51.694;6.256;2023-08-07T14:13:08;6.00;;;1.70;;
3922;SDS011;1976;51.694;6.256;2023-08-07T14:15:35;4.00;;;1.40;;
3922;SDS011;1976;51.694;6.256;2023-08-07T14:18:00;2.27;;;1.40;;
3922;SDS011;1976;51.694;6.256;2023-08-07T14:20:26;5.03;;;1.70;;
3922;SDS011;1976;51.694;6.256;2023-08-07T14:22:52;5.13;;;1.30;;
3922;SDS011;1976;51.694;6.256;2023-08-07T14:25:18;6.50;;;1.57;;
3922;SDS011;1976;51.694;6.256;2023-08-07T14:27:46;7.70;;;1.30;;
3922;SDS011;1976;51.694;6.256;2023-08-07T14:30:12;2.57;;;1.23;;
3922;SDS011;1976;51.694;6.256;2023-08-07T14:32:38;1.17;;;1.07;;
3922;SDS011;1976;51.694;6.256;2023-08-07T14:35:03;9.53;;;1.73;;
3922;SDS011;1976;51.694;6.256;2023-08-07T14:37:29;3.30;;;1.40;;
3922;SDS011;1976;51.694;6.256;2023-08-07T14:39:55;3.30;;;1.27;;
3922;SDS011;1976;51.694;6.256;2023-08-07T14:42:20;5.23;;;1.50;;
3922;SDS011;1976;51.694;6.256;2023-08-07T14:44:47;1.63;;;1.10;;
3922;SDS011;1976;51.694;6.256;2023-08-07T14:47:12;2.30;;;0.90;;
3922;SDS011;1976;51.694;6.256;2023-08-07T14:49:38;2.50;;;1.33;;
3922;SDS011;1976;51.694;6.256;2023-08-07T14:52:04;10.07;;;1.70;;
3922;SDS011;1976;51.694;6.256;2023-08-07T14:54:32;3.67;;;1.53;;
3922;SDS011;1976;51.694;6.256;2023-08-07T14:56:58;3.00;;;1.50;;
3922;SDS011;1976;51.694;6.256;2023-08-07T14:59:24;3.43;;;1.70;;
3922;SDS011;1976;51.694;6.256;2023-08-07T15:01:50;7.43;;;1.50;;
3922;SDS011;1976;51.694;6.256;2023-08-07T15:04:16;5.53;;;1.47;;
3922;SDS011;1976;51.694;6.256;2023-08-07T15:06:42;7.57;;;1.73;;
3922;SDS011;1976;51.694;6.256;2023-08-07T15:09:08;5.57;;;1.80;;
3922;SDS011;1976;51.694;6.256;2023-08-07T15:11:34;4.73;;;1.40;;
3922;SDS011;1976;51.694;6.256;2023-08-07T15:14:00;8.20;;;1.80;;
3922;SDS011;1976;51.694;6.256;2023-08-07T15:16:29;5.37;;;2.23;;